createdAt,value
2022-12-09T00:00:57.878Z,97545.22
2022-12-09T00:03:24.782Z,97541.78
2022-12-09T00:05:51.713Z,97549.53
2022-12-09T00:08:18.471Z,97549.53
2022-12-09T00:10:45.470Z,97543.50
2022-12-09T00:13:12.279Z,97552.13
2022-12-09T00:15:42.767Z,97542.63
2022-12-09T00:18:10.621Z,97542.63
2022-12-09T00:20:37.244Z,97539.19
2022-12-09T00:23:04.044Z,97532.28
2022-12-09T00:25:30.765Z,97534.00
2022-12-09T00:27:57.660Z,97536.59
2022-12-09T00:30:24.396Z,97534.00
2022-12-09T00:32:51.265Z,97537.47
2022-12-09T00:35:17.967Z,97529.72
2022-12-09T00:37:44.808Z,97535.75
2022-12-09T00:40:12.329Z,97534.00
2022-12-09T00:42:39.722Z,97532.31
2022-12-09T00:45:07.941Z,97530.56
2022-12-09T00:47:35.264Z,97531.44
2022-12-09T00:50:02.506Z,97527.13
2022-12-09T00:52:29.385Z,97529.72
2022-12-09T00:54:56.058Z,97536.63
2022-12-09T00:57:22.847Z,97536.59
2022-12-09T00:59:49.530Z,97540.91
2022-12-09T01:02:16.260Z,97537.47
2022-12-09T01:04:43.180Z,97542.66
2022-12-09T01:07:10.900Z,97546.09
2022-12-09T01:09:37.761Z,97544.38
2022-12-09T01:12:05.161Z,97544.38
2022-12-09T01:14:32.011Z,97540.94
2022-12-09T01:16:58.692Z,97545.25
2022-12-09T01:19:25.369Z,97543.53
2022-12-09T01:21:55.546Z,97542.66
2022-12-09T01:24:23.053Z,97544.34
2022-12-09T01:26:49.806Z,97544.34
2022-12-09T01:29:16.475Z,97546.97
2022-12-09T01:31:43.535Z,97549.56
2022-12-09T01:34:10.337Z,97550.44
2022-12-09T01:36:37.067Z,97551.28
2022-12-09T01:39:04.140Z,97547.88
2022-12-09T01:41:30.824Z,97546.09
2022-12-09T01:44:18.315Z,97547.00
2022-12-09T01:46:46.183Z,97549.59
2022-12-09T01:49:19.611Z,97543.56
2022-12-09T01:51:52.875Z,97546.16
2022-12-09T01:54:19.826Z,97544.41
2022-12-09T01:56:46.553Z,97536.66
2022-12-09T01:59:15.177Z,97540.97
2022-12-09T02:01:46.101Z,97534.94
2022-12-09T02:04:13.045Z,97536.69
2022-12-09T02:06:40.387Z,97530.66
2022-12-09T02:09:08.090Z,97528.91
2022-12-09T02:11:46.184Z,97526.31
2022-12-09T02:14:22.358Z,97526.34
2022-12-09T02:17:05.277Z,97523.78
2022-12-09T02:19:51.178Z,97532.38
2022-12-09T02:22:24.059Z,97530.66
2022-12-09T02:25:03.355Z,97523.78
2022-12-09T02:27:43.324Z,97527.25
2022-12-09T02:30:17.671Z,97522.06
2022-12-09T02:33:22.907Z,97522.06
2022-12-09T02:36:01.544Z,97522.06
2022-12-09T02:38:32.474Z,97518.59
2022-12-09T02:41:04.291Z,97516.91
2022-12-09T02:43:35.893Z,97516.03
2022-12-09T02:46:05.406Z,97513.44
2022-12-09T02:48:43.980Z,97512.56
2022-12-09T02:51:17.116Z,97516.88
2022-12-09T02:53:46.707Z,97509.13
2022-12-09T02:56:15.635Z,97508.28
2022-12-09T02:58:42.261Z,97510.00
2022-12-09T03:02:06.490Z,97504.81
2022-12-09T03:04:33.375Z,97506.53
2022-12-09T03:07:32.157Z,97509.13
2022-12-09T03:10:11.959Z,97502.22
2022-12-09T03:12:43.336Z,97509.09
2022-12-09T03:15:12.887Z,97499.59
2022-12-09T03:17:43.586Z,97513.41
2022-12-09T03:20:17.363Z,97504.78
2022-12-09T03:22:46.389Z,97494.44
2022-12-09T03:25:19.462Z,97501.34
2022-12-09T03:28:07.930Z,97491.03
2022-12-09T03:30:39.317Z,97502.19
2022-12-09T03:33:07.777Z,97492.75
2022-12-09T03:35:39.167Z,97486.72
2022-12-09T03:38:10.273Z,97482.41
2022-12-09T03:40:38.761Z,97474.63
2022-12-09T03:43:16.373Z,97472.03
2022-12-09T03:45:43.818Z,97474.63
2022-12-09T03:48:11.603Z,97473.75
2022-12-09T03:50:56.724Z,97468.59
2022-12-09T03:53:29.753Z,97472.03
2022-12-09T03:56:17.840Z,97473.75
2022-12-09T03:58:47.633Z,97476.31
2022-12-09T04:01:15.373Z,97474.59
2022-12-09T04:03:46.224Z,97465.19
2022-12-09T04:06:13.194Z,97463.47
2022-12-09T04:08:40.085Z,97471.22
2022-12-09T04:11:06.919Z,97466.03
2022-12-09T04:13:33.736Z,97475.53
2022-12-09T04:16:00.582Z,97466.88
2022-12-09T04:18:28.003Z,97462.56
2022-12-09T04:20:55.033Z,97461.72
2022-12-09T04:23:22.320Z,97461.72
2022-12-09T04:25:49.450Z,97465.13
2022-12-09T04:28:16.174Z,97463.38
2022-12-09T04:30:47.047Z,97461.66
2022-12-09T04:33:13.990Z,97456.50
2022-12-09T04:35:40.772Z,97460.81
2022-12-09T04:38:07.741Z,97456.50
2022-12-09T04:40:34.781Z,97447.03
2022-12-09T04:43:01.496Z,97448.78
2022-12-09T04:45:28.171Z,97452.22
2022-12-09T04:47:55.102Z,97453.06
2022-12-09T04:50:21.929Z,97458.22
2022-12-09T04:52:48.880Z,97449.59
2022-12-09T04:55:16.109Z,97448.78
2022-12-09T04:57:43.098Z,97453.06
2022-12-09T05:00:11.309Z,97445.34
2022-12-09T05:02:38.330Z,97453.09
2022-12-09T05:05:05.849Z,97456.53
2022-12-09T05:07:32.944Z,97454.81
2022-12-09T05:09:59.810Z,97452.19
2022-12-09T05:12:27.038Z,97466.00
2022-12-09T05:14:54.082Z,97470.28
2022-12-09T05:17:21.099Z,97474.63
2022-12-09T05:19:48.030Z,97466.88
2022-12-09T05:22:17.825Z,97468.63
2022-12-09T05:24:45.117Z,97470.34
2022-12-09T05:27:12.096Z,97468.63
2022-12-09T05:29:39.076Z,97468.63
2022-12-09T05:32:06.441Z,97457.44
2022-12-09T05:34:33.711Z,97466.94
2022-12-09T05:37:00.742Z,97462.63
2022-12-09T05:39:27.478Z,97461.75
2022-12-09T05:41:54.402Z,97461.75
2022-12-09T05:44:21.497Z,97454.88
2022-12-09T05:46:48.552Z,97456.59
2022-12-09T05:49:15.475Z,97460.00
2022-12-09T05:51:42.134Z,97459.16
2022-12-09T05:54:09.016Z,97453.16
2022-12-09T05:56:36.300Z,97455.72
2022-12-09T05:59:03.315Z,97456.56
2022-12-09T06:01:30.204Z,97455.72
2022-12-09T06:03:57.918Z,97451.41
2022-12-09T06:06:31.405Z,97455.72
2022-12-09T06:09:00.684Z,97445.41
2022-12-09T06:11:28.313Z,97448.84
2022-12-09T06:13:56.082Z,97447.09
2022-12-09T06:16:23.369Z,97446.25
2022-12-09T06:18:51.256Z,97447.97
2022-12-09T06:21:19.292Z,97444.50
2022-12-09T06:23:46.951Z,97451.41
2022-12-09T06:26:26.009Z,97449.69
2022-12-09T06:28:54.184Z,97447.09
2022-12-09T06:31:21.664Z,97454.00
2022-12-09T06:33:58.032Z,97453.97
2022-12-09T06:36:27.229Z,97448.81
2022-12-09T06:38:54.191Z,97458.28
2022-12-09T06:41:21.280Z,97444.50
2022-12-09T06:43:48.275Z,97440.19
2022-12-09T06:46:20.759Z,97447.97
2022-12-09T06:48:48.163Z,97441.06
2022-12-09T06:51:16.361Z,97444.50
2022-12-09T06:53:43.595Z,97445.38
2022-12-09T06:56:13.300Z,97443.66
2022-12-09T06:58:42.247Z,97441.09
2022-12-09T07:01:21.690Z,97445.38
2022-12-09T07:03:51.819Z,97438.47
2022-12-09T07:06:30.128Z,97441.06
2022-12-09T07:09:03.453Z,97441.06
2022-12-09T07:11:31.180Z,97443.63
2022-12-09T07:13:58.323Z,97436.78
2022-12-09T07:16:25.682Z,97437.63
2022-12-09T07:18:52.788Z,97435.03
2022-12-09T07:21:21.414Z,97431.59
2022-12-09T07:23:48.513Z,97432.44
2022-12-09T07:26:16.985Z,97439.34
2022-12-09T07:28:44.921Z,97429.00
2022-12-09T07:31:28.575Z,97441.06
2022-12-09T07:33:58.676Z,97437.59
2022-12-09T07:36:27.176Z,97441.03
2022-12-09T07:39:06.289Z,97439.31
2022-12-09T07:41:33.836Z,97449.69
2022-12-09T07:44:01.223Z,97447.94
2022-12-09T07:46:28.619Z,97454.81
2022-12-09T07:48:59.437Z,97448.78
2022-12-09T07:51:26.814Z,97448.78
2022-12-09T07:53:54.043Z,97446.22
2022-12-09T07:56:24.889Z,97450.50
2022-12-09T07:58:54.125Z,97456.53
2022-12-09T08:01:26.770Z,97465.13
2022-12-09T08:03:54.455Z,97444.44
2022-12-09T08:06:23.793Z,97456.53
2022-12-09T08:08:51.298Z,97454.81
2022-12-09T08:11:24.380Z,97456.50
2022-12-09T08:13:52.469Z,97461.66
2022-12-09T08:16:21.530Z,97451.31
2022-12-09T08:18:49.773Z,97459.94
2022-12-09T08:21:20.498Z,97464.22
2022-12-09T08:23:48.293Z,97465.09
2022-12-09T08:26:17.122Z,97462.47
2022-12-09T08:28:44.407Z,97463.28
2022-12-09T08:31:17.795Z,97461.50
2022-12-09T08:33:45.064Z,97462.28
2022-12-09T08:36:15.214Z,97467.38
2022-12-09T08:38:43.380Z,97456.03
2022-12-09T08:41:14.046Z,97455.97
2022-12-09T08:43:42.048Z,97448.19
2022-12-09T08:46:09.551Z,97450.81
2022-12-09T08:48:38.184Z,97455.16
2022-12-09T08:51:05.896Z,97455.25
2022-12-09T08:53:32.999Z,97461.28
2022-12-09T08:56:00.057Z,97456.13
2022-12-09T08:58:27.182Z,97457.88
2022-12-09T09:00:54.358Z,97447.50
2022-12-09T09:03:21.680Z,97458.66
2022-12-09T09:05:48.764Z,97464.66
2022-12-09T09:08:16.034Z,97452.56
2022-12-09T09:10:43.341Z,97448.19
2022-12-09T09:13:10.339Z,97442.16
2022-12-09T09:15:39.749Z,97449.06
2022-12-09T09:18:07.029Z,97444.72
2022-12-09T09:20:34.366Z,97440.38
2022-12-09T09:23:03.407Z,97446.41
2022-12-09T09:25:31.236Z,97442.03
2022-12-09T09:27:58.422Z,97441.94
2022-12-09T09:30:25.422Z,97443.63
2022-12-09T09:32:52.266Z,97434.88
2022-12-09T09:35:19.784Z,97439.25
2022-12-09T09:37:47.084Z,97438.38
2022-12-09T09:40:14.582Z,97434.13
2022-12-09T09:42:47.914Z,97424.53
2022-12-09T09:45:18.536Z,97421.84
2022-12-09T09:48:02.881Z,97410.44
2022-12-09T09:50:44.498Z,97409.56
2022-12-09T09:53:30.717Z,97405.16
2022-12-09T09:56:01.336Z,97406.84
2022-12-09T09:58:47.450Z,97404.19
2022-12-09T10:01:19.357Z,97402.63
2022-12-09T10:04:08.964Z,97400.94
2022-12-09T10:06:45.710Z,97401.56
2022-12-09T10:09:39.436Z,97395.50
2022-12-09T10:12:20.142Z,97395.56
2022-12-09T10:15:12.488Z,97389.50
2022-12-09T10:18:01.250Z,97390.31
2022-12-09T10:20:29.667Z,97389.44
2022-12-09T10:23:05.045Z,97383.34
2022-12-09T10:25:35.586Z,97387.56
2022-12-09T10:28:29.175Z,97380.53
2022-12-09T10:30:57.258Z,97378.69
2022-12-09T10:33:30.603Z,97375.97
2022-12-09T10:35:57.921Z,97379.59
2022-12-09T10:38:26.824Z,97362.16
2022-12-09T10:41:12.520Z,97362.84
2022-12-09T10:43:44.191Z,97366.25
2022-12-09T10:46:20.528Z,97365.25
2022-12-09T10:48:47.973Z,97361.03
2022-12-09T10:51:17.478Z,97358.78
2022-12-09T10:53:48.932Z,97365.00
2022-12-09T10:56:28.457Z,97353.94
2022-12-09T10:59:13.854Z,97352.94
2022-12-09T11:01:50.699Z,97356.53
2022-12-09T11:04:32.177Z,97348.00
2022-12-09T11:07:11.901Z,97348.88
2022-12-09T11:09:50.348Z,97349.78
2022-12-09T11:12:32.086Z,97341.06
2022-12-09T11:15:40.513Z,97356.59
2022-12-09T11:18:44.679Z,97353.31
2022-12-09T11:21:34.298Z,97351.47
2022-12-09T11:24:03.658Z,97346.31
2022-12-09T11:26:37.725Z,97349.63
2022-12-09T11:29:14.075Z,97355.53
2022-12-09T11:31:42.700Z,97350.44
2022-12-09T11:34:23.982Z,97351.44
2022-12-09T11:36:54.466Z,97360.09
2022-12-09T11:39:33.877Z,97354.88
2022-12-09T11:42:18.917Z,97356.59
2022-12-09T11:44:59.015Z,97357.34
2022-12-09T11:47:50.329Z,97351.56
2022-12-09T11:50:31.435Z,97358.50
2022-12-09T11:53:10.602Z,97355.13
2022-12-09T11:55:44.821Z,97353.44
2022-12-09T11:58:16.101Z,97354.16
2022-12-09T12:01:04.161Z,97356.06
2022-12-09T12:03:44.852Z,97350.06
2022-12-09T12:06:25.509Z,97352.72
2022-12-09T12:09:19.700Z,97361.44
2022-12-09T12:12:03.279Z,97359.66
2022-12-09T12:14:31.534Z,97358.72
2022-12-09T12:17:18.352Z,97355.19
2022-12-09T12:19:49.705Z,97356.22
2022-12-09T12:22:34.716Z,97347.59
2022-12-09T12:25:26.806Z,97353.69
2022-12-09T12:27:59.003Z,97351.19
2022-12-09T12:30:35.742Z,97351.97
2022-12-09T12:36:38.452Z,97344.34
2022-12-09T12:39:14.408Z,97345.09
2022-12-09T12:41:53.220Z,97340.66
2022-12-09T12:44:58.155Z,97339.13
2022-12-09T12:47:46.275Z,97334.72
2022-12-09T12:50:32.484Z,97336.41
2022-12-09T12:53:25.481Z,97325.16
2022-12-09T12:56:05.692Z,97329.47
2022-12-09T12:59:03.573Z,97322.53
2022-12-09T13:01:40.533Z,97314.84
2022-12-09T13:04:24.054Z,97326.00
2022-12-09T13:06:59.748Z,97318.16
2022-12-09T13:09:52.920Z,97319.16
2022-12-09T13:12:45.286Z,97312.19
2022-12-09T13:15:18.466Z,97307.94
2022-12-09T13:17:47.579Z,97311.38
2022-12-09T13:20:26.158Z,97313.03
2022-12-09T13:23:05.807Z,97313.03
2022-12-09T13:25:41.546Z,97315.56
2022-12-09T13:28:10.901Z,97312.16
2022-12-09T13:30:54.003Z,97310.31
2022-12-09T13:33:27.097Z,97307.00
2022-12-09T13:36:23.009Z,97315.72
2022-12-09T13:38:50.520Z,97314.06
2022-12-09T13:41:26.176Z,97304.56
2022-12-09T13:43:54.528Z,97309.63
2022-12-09T13:46:23.765Z,97302.81
2022-12-09T13:48:51.709Z,97302.91
2022-12-09T13:51:19.287Z,97289.16
2022-12-09T13:53:47.765Z,97298.66
2022-12-09T13:56:44.216Z,97294.28
2022-12-09T13:59:13.590Z,97296.69
2022-12-09T14:02:02.246Z,97297.66
2022-12-09T14:04:36.121Z,97296.81
2022-12-09T14:07:14.870Z,97294.25
2022-12-09T14:09:44.462Z,97293.34
2022-12-09T14:12:40.987Z,97288.97
2022-12-09T14:15:35.965Z,97289.09
2022-12-09T14:18:05.859Z,97295.25
2022-12-09T14:20:39.697Z,97294.31
2022-12-09T14:23:12.538Z,97290.00
2022-12-09T14:25:53.806Z,97297.81
2022-12-09T14:28:35.453Z,97290.06
2022-12-09T14:31:08.386Z,97300.41
2022-12-09T14:33:47.689Z,97295.28
2022-12-09T14:36:14.258Z,97303.06
2022-12-09T14:39:24.106Z,97303.97
2022-12-09T14:42:04.257Z,97299.69
2022-12-09T14:45:00.205Z,97296.16
2022-12-09T14:47:30.592Z,97298.84
2022-12-09T14:50:07.810Z,97304.88
2022-12-09T14:52:34.963Z,97304.03
2022-12-09T14:55:08.334Z,97312.72
2022-12-09T14:57:44.083Z,97309.28
2022-12-09T15:00:41.791Z,97305.81
2022-12-09T15:03:34.319Z,97301.53
2022-12-09T15:06:12.982Z,97299.94
2022-12-09T15:08:41.682Z,97300.81
2022-12-09T15:11:14.804Z,97303.44
2022-12-09T15:13:44.908Z,97296.50
2022-12-09T15:16:16.171Z,97291.31
2022-12-09T15:18:44.645Z,97297.38
2022-12-09T15:21:20.105Z,97302.63
2022-12-09T15:23:46.890Z,97293.13
2022-12-09T15:26:32.411Z,97295.75
2022-12-09T15:29:01.120Z,97299.25
2022-12-09T15:31:31.172Z,97303.50
2022-12-09T15:34:09.184Z,97308.66
2022-12-09T15:36:41.909Z,97307.81
2022-12-09T15:39:15.983Z,97314.63
2022-12-09T15:42:07.223Z,97314.63
2022-12-09T15:45:11.716Z,97309.53
2022-12-09T15:47:50.503Z,97307.00
2022-12-09T15:50:39.450Z,97322.50
2022-12-09T15:53:24.576Z,97315.59
2022-12-09T15:56:06.338Z,97319.91
2022-12-09T15:58:39.114Z,97325.16
2022-12-09T16:01:06.169Z,97313.06
2022-12-09T16:03:34.622Z,97321.66
2022-12-09T16:06:04.326Z,97320.81
2022-12-09T16:08:37.543Z,97309.63
2022-12-09T16:11:05.028Z,97321.69
2022-12-09T16:13:37.017Z,97313.03
2022-12-09T16:16:28.953Z,97315.63
2022-12-09T16:18:56.854Z,97319.84
2022-12-09T16:21:28.097Z,97306.03
2022-12-09T16:23:57.628Z,97316.38
2022-12-09T16:26:38.245Z,97309.50
2022-12-09T16:29:07.846Z,97313.84
2022-12-09T16:31:34.894Z,97315.56
2022-12-09T16:34:03.020Z,97317.28
2022-12-09T16:36:32.131Z,97319.97
2022-12-09T16:39:08.195Z,97324.25
2022-12-09T16:44:52.823Z,97324.22
2022-12-09T16:47:24.275Z,97324.22
2022-12-09T16:49:51.057Z,97326.84
2022-12-09T16:52:23.628Z,97339.78
2022-12-09T16:54:50.981Z,97324.28
2022-12-09T16:57:20.026Z,97326.06
2022-12-09T16:59:47.189Z,97326.91
2022-12-09T17:02:31.239Z,97332.97
2022-12-09T17:04:58.963Z,97324.41
2022-12-09T17:07:25.690Z,97323.53
2022-12-09T17:09:52.464Z,97324.34
2022-12-09T17:12:19.224Z,97316.66
2022-12-09T17:14:46.021Z,97315.78
2022-12-09T17:17:14.753Z,97317.53
2022-12-09T17:19:42.211Z,97313.22
2022-12-09T17:22:09.057Z,97312.41
2022-12-09T17:24:35.744Z,97316.78
2022-12-09T17:27:02.425Z,97311.56
2022-12-09T17:29:29.153Z,97313.28
2022-12-09T17:31:55.890Z,97315.88
2022-12-09T17:34:22.690Z,97327.06
2022-12-09T17:36:49.296Z,97326.19
2022-12-09T17:39:16.307Z,97323.56
2022-12-09T17:41:43.173Z,97319.28
2022-12-09T17:44:10.610Z,97318.47
2022-12-09T17:46:37.267Z,97321.91
2022-12-09T17:49:04.259Z,97327.06
2022-12-09T17:51:35.579Z,97332.25
2022-12-09T17:54:03.214Z,97327.97
2022-12-09T17:56:29.957Z,97334.03
2022-12-09T17:59:00.127Z,97328.84
2022-12-09T18:01:27.288Z,97333.97
2022-12-09T18:04:02.981Z,97347.84
2022-12-09T18:06:34.392Z,97342.59
2022-12-09T18:09:03.408Z,97346.94
2022-12-09T18:11:30.083Z,97348.63
2022-12-09T18:13:56.850Z,97357.28
2022-12-09T18:16:23.866Z,97348.63
2022-12-09T18:18:50.693Z,97360.75
2022-12-09T18:21:19.891Z,97354.69
2022-12-09T18:23:48.403Z,97361.59
2022-12-09T18:26:17.743Z,97356.41
2022-12-09T18:28:44.476Z,97357.25
2022-12-09T18:31:14.626Z,97353.81
2022-12-09T18:33:42.348Z,97357.28
2022-12-09T18:36:14.523Z,97364.19
2022-12-09T18:38:42.335Z,97361.63
2022-12-09T18:41:13.904Z,97358.16
2022-12-09T18:43:43.520Z,97359.03
2022-12-09T18:46:21.388Z,97352.09
2022-12-09T18:49:17.479Z,97354.66
2022-12-09T18:51:45.568Z,97361.56
2022-12-09T18:54:19.422Z,97358.19
2022-12-09T18:56:46.424Z,97354.72
2022-12-09T18:59:13.212Z,97358.16
2022-12-09T19:01:42.629Z,97363.31
2022-12-09T19:04:24.885Z,97353.00
2022-12-09T19:06:54.687Z,97365.06
2022-12-09T19:09:24.596Z,97359.88
2022-12-09T19:11:52.670Z,97361.56
2022-12-09T19:14:21.890Z,97354.69
2022-12-09T19:16:49.548Z,97363.31
2022-12-09T19:19:19.113Z,97364.19
2022-12-09T19:21:46.314Z,97359.88
2022-12-09T19:24:18.544Z,97352.94
2022-12-09T19:26:45.772Z,97362.47
2022-12-09T19:29:13.957Z,97359.84
2022-12-09T19:31:46.895Z,97362.41
2022-12-09T19:34:21.256Z,97368.47
2022-12-09T19:36:49.520Z,97370.13
2022-12-09T19:39:18.308Z,97370.19
2022-12-09T19:41:45.652Z,97373.66
2022-12-09T19:44:21.590Z,97376.25
2022-12-09T19:46:55.883Z,97374.47
2022-12-09T19:49:24.262Z,97374.47
2022-12-09T19:51:51.642Z,97372.75
2022-12-09T19:54:21.454Z,97370.16
2022-12-09T19:56:51.855Z,97377.06
2022-12-09T19:59:18.637Z,97382.25
2022-12-09T20:01:45.923Z,97380.53
2022-12-09T20:04:47.550Z,97383.03
2022-12-09T20:07:08.258Z,97380.50
2022-12-09T20:09:36.716Z,97381.38
2022-12-09T20:12:03.614Z,97380.47
2022-12-09T20:14:30.247Z,97388.25
2022-12-09T20:16:57.058Z,97376.19
2022-12-09T20:19:24.782Z,97375.31
2022-12-09T20:21:51.355Z,97373.56
2022-12-09T20:24:17.998Z,97377.03
2022-12-09T20:26:44.937Z,97380.47
2022-12-09T20:29:11.662Z,97376.22
2022-12-09T20:31:38.798Z,97380.53
2022-12-09T20:34:08.725Z,97384.00
2022-12-09T20:36:37.003Z,97384.84
2022-12-09T20:39:15.642Z,97381.38
2022-12-09T20:41:43.804Z,97384.00
2022-12-09T20:44:12.113Z,97384.00
2022-12-09T20:46:40.664Z,97380.56
2022-12-09T20:49:07.670Z,97386.56
2022-12-09T20:51:40.425Z,97384.84
2022-12-09T20:54:10.033Z,97392.63
2022-12-09T20:56:37.276Z,97387.44
2022-12-09T20:59:04.839Z,97389.19
2022-12-09T21:01:34.369Z,97401.28
2022-12-09T21:04:02.561Z,97399.53
2022-12-09T21:06:32.750Z,97399.56
2022-12-09T21:09:09.561Z,97403.84
2022-12-09T21:11:37.322Z,97404.72
2022-12-09T21:14:06.959Z,97402.13
2022-12-09T21:16:38.912Z,97399.50
2022-12-09T21:19:07.508Z,97402.09
2022-12-09T21:21:36.030Z,97396.94
2022-12-09T21:24:04.700Z,97401.22
2022-12-09T21:26:31.496Z,97402.13
2022-12-09T21:29:00.561Z,97402.97
2022-12-09T21:31:35.282Z,97397.81
2022-12-09T21:34:05.717Z,97410.72
2022-12-09T21:36:39.387Z,97409.91
2022-12-09T21:39:07.093Z,97407.31
2022-12-09T21:41:36.577Z,97408.13
2022-12-09T21:44:05.043Z,97406.44
2022-12-09T21:46:35.311Z,97409.88
2022-12-09T21:49:04.556Z,97405.53
2022-12-09T21:51:32.784Z,97404.69
2022-12-09T21:53:59.603Z,97404.72
2022-12-09T21:56:30.491Z,97415.06
2022-12-09T21:58:58.426Z,97413.34
2022-12-09T22:01:39.113Z,97417.63
2022-12-09T22:04:08.525Z,97420.25
2022-12-09T22:06:35.853Z,97421.06
2022-12-09T22:09:04.053Z,97421.13
2022-12-09T22:11:33.678Z,97415.91
2022-12-09T22:14:01.734Z,97427.16
2022-12-09T22:16:31.728Z,97420.25
2022-12-09T22:18:59.805Z,97414.19
2022-12-09T22:21:29.182Z,97420.25
2022-12-09T22:24:03.163Z,97424.56
2022-12-09T22:26:30.454Z,97421.09
2022-12-09T22:29:00.502Z,97427.09
2022-12-09T22:31:30.474Z,97417.63
2022-12-09T22:34:00.793Z,97424.56
2022-12-09T22:36:28.443Z,97430.63
2022-12-09T22:38:55.855Z,97432.34
2022-12-09T22:41:25.941Z,97426.31
2022-12-09T22:43:54.289Z,97428.00
2022-12-09T22:46:24.437Z,97420.28
2022-12-09T22:48:51.176Z,97427.13
2022-12-09T22:51:21.886Z,97428.84
2022-12-09T22:53:50.214Z,97427.97
2022-12-09T22:56:17.311Z,97434.91
2022-12-09T22:58:44.134Z,97434.03
2022-12-09T23:01:13.053Z,97434.03
2022-12-09T23:03:40.773Z,97436.59
2022-12-09T23:06:07.860Z,97437.50
2022-12-09T23:08:35.083Z,97442.63
2022-12-09T23:11:03.900Z,97440.91
2022-12-09T23:13:31.663Z,97442.63
2022-12-09T23:16:02.032Z,97442.63
2022-12-09T23:18:33.360Z,97439.19
2022-12-09T23:21:14.657Z,97444.41
2022-12-09T23:23:42.509Z,97447.84
2022-12-09T23:26:14.951Z,97437.50
2022-12-09T23:28:50.525Z,97442.69
2022-12-09T23:31:19.941Z,97441.81
2022-12-09T23:33:48.097Z,97440.91
2022-12-09T23:36:16.908Z,97442.69
2022-12-09T23:38:44.373Z,97440.09
2022-12-09T23:41:12.714Z,97440.09
2022-12-09T23:43:39.602Z,97442.66
2022-12-09T23:46:15.330Z,97437.50
2022-12-09T23:48:43.337Z,97449.59
2022-12-09T23:51:25.068Z,97443.59
2022-12-09T23:53:54.140Z,97447.00
2022-12-09T23:56:22.760Z,97448.72
2022-12-09T23:58:57.428Z,97448.72
